Terminal Aerodrome Forecast
Issued by NWS

Home | Current Version | Previous Version | Graphics & Text | Print | Product List | Glossary On
Versions: 1 2 3 4 5 6 7 8 9 10 11 12 13
000
FTUS43 KBIS 011124
TAFMOT
TAF
KMOT 011124Z 0112/0212 23012KT P6SM FEW090 SCT200
     FM011800 23014G25KT P6SM SCT070 SCT200
     FM020100 23007KT P6SM SCT180
     FM020600 20007KT P6SM SCT130=

USA.gov is the U.S. government's official web portal to all federal, state and local government web resources and services.